sensor_id;sensor_type;location;lat;lon;timestamp;temperature;humidity
18753;DHT22;9505;50.882;5.350;2023-05-10T00:02:03;13.60;99.90
18753;DHT22;9505;50.882;5.350;2023-05-10T00:04:28;13.50;99.90
18753;DHT22;9505;50.882;5.350;2023-05-10T00:06:54;13.50;99.90
18753;DHT22;9505;50.882;5.350;2023-05-10T00:09:20;13.50;99.90
18753;DHT22;9505;50.882;5.350;2023-05-10T00:11:45;13.40;99.90
18753;DHT22;9505;50.882;5.350;2023-05-10T00:14:11;13.40;99.90
18753;DHT22;9505;50.882;5.350;2023-05-10T00:16:37;13.50;99.90
18753;DHT22;9505;50.882;5.350;2023-05-10T00:19:03;13.50;99.90
18753;DHT22;9505;50.882;5.350;2023-05-10T00:21:28;13.50;99.90
18753;DHT22;9505;50.882;5.350;2023-05-10T00:23:54;13.50;99.90
18753;DHT22;9505;50.882;5.350;2023-05-10T00:26:20;13.50;99.90
18753;DHT22;9505;50.882;5.350;2023-05-10T00:28:46;13.50;99.90
18753;DHT22;9505;50.882;5.350;2023-05-10T00:31:12;13.50;99.90
18753;DHT22;9505;50.882;5.350;2023-05-10T00:33:37;13.50;99.90
18753;DHT22;9505;50.882;5.350;2023-05-10T00:36:03;13.60;99.90
18753;DHT22;9505;50.882;5.350;2023-05-10T00:38:29;13.60;99.90
18753;DHT22;9505;50.882;5.350;2023-05-10T00:40:54;13.50;99.90
18753;DHT22;9505;50.882;5.350;2023-05-10T00:43:20;13.60;99.90
18753;DHT22;9505;50.882;5.350;2023-05-10T00:45:46;13.50;99.90
18753;DHT22;9505;50.882;5.350;2023-05-10T00:48:12;13.50;99.90
18753;DHT22;9505;50.882;5.350;2023-05-10T00:50:38;13.50;99.90
18753;DHT22;9505;50.882;5.350;2023-05-10T00:53:06;13.50;99.90
18753;DHT22;9505;50.882;5.350;2023-05-10T00:55:32;13.50;99.90
18753;DHT22;9505;50.882;5.350;2023-05-10T00:57:58;13.40;99.90
18753;DHT22;9505;50.882;5.350;2023-05-10T01:00:24;13.40;99.90
18753;DHT22;9505;50.882;5.350;2023-05-10T01:02:52;13.30;99.90
18753;DHT22;9505;50.882;5.350;2023-05-10T01:05:18;13.30;99.90
18753;DHT22;9505;50.882;5.350;2023-05-10T01:07:44;13.30;99.90
18753;DHT22;9505;50.882;5.350;2023-05-10T01:10:10;13.30;99.90
18753;DHT22;9505;50.882;5.350;2023-05-10T01:12:39;13.20;99.90
18753;DHT22;9505;50.882;5.350;2023-05-10T01:15:07;13.30;99.90
18753;DHT22;9505;50.882;5.350;2023-05-10T01:17:34;13.20;99.90
18753;DHT22;9505;50.882;5.350;2023-05-10T01:20:00;13.20;99.90
18753;DHT22;9505;50.882;5.350;2023-05-10T01:34:16;13.30;99.90
18753;DHT22;9505;50.882;5.350;2023-05-10T01:36:48;13.30;99.90
18753;DHT22;9505;50.882;5.350;2023-05-10T01:39:37;13.30;99.90
18753;DHT22;9505;50.882;5.350;2023-05-10T01:42:11;13.30;99.90
18753;DHT22;9505;50.882;5.350;2023-05-10T01:44:46;13.30;99.90
18753;DHT22;9505;50.882;5.350;2023-05-10T01:47:22;13.30;99.90
18753;DHT22;9505;50.882;5.350;2023-05-10T01:49:53;13.30;99.90
18753;DHT22;9505;50.882;5.350;2023-05-10T01:52:25;13.30;99.90
18753;DHT22;9505;50.882;5.350;2023-05-10T01:54:56;13.30;99.90
18753;DHT22;9505;50.882;5.350;2023-05-10T01:57:27;13.40;99.90
18753;DHT22;9505;50.882;5.350;2023-05-10T01:59:59;13.40;99.90
18753;DHT22;9505;50.882;5.350;2023-05-10T02:02:27;13.30;99.90
18753;DHT22;9505;50.882;5.350;2023-05-10T02:04:54;13.30;99.90
18753;DHT22;9505;50.882;5.350;2023-05-10T02:07:21;13.30;99.90
18753;DHT22;9505;50.882;5.350;2023-05-10T02:09:48;13.30;99.90
18753;DHT22;9505;50.882;5.350;2023-05-10T02:12:15;13.30;99.90
18753;DHT22;9505;50.882;5.350;2023-05-10T02:14:42;13.30;99.90
18753;DHT22;9505;50.882;5.350;2023-05-10T02:17:09;13.40;99.90
18753;DHT22;9505;50.882;5.350;2023-05-10T02:19:37;13.40;99.90
18753;DHT22;9505;50.882;5.350;2023-05-10T02:22:04;13.40;99.90
18753;DHT22;9505;50.882;5.350;2023-05-10T02:24:30;13.40;99.90
18753;DHT22;9505;50.882;5.350;2023-05-10T02:26:57;13.40;99.90
18753;DHT22;9505;50.882;5.350;2023-05-10T02:29:25;13.30;99.90
18753;DHT22;9505;50.882;5.350;2023-05-10T02:31:54;13.40;99.90
18753;DHT22;9505;50.882;5.350;2023-05-10T02:34:26;13.40;99.90
18753;DHT22;9505;50.882;5.350;2023-05-10T02:36:53;13.30;99.90
18753;DHT22;9505;50.882;5.350;2023-05-10T02:39:20;13.30;99.90
18753;DHT22;9505;50.882;5.350;2023-05-10T02:41:46;13.20;99.90
18753;DHT22;9505;50.882;5.350;2023-05-10T02:44:15;13.30;99.90
18753;DHT22;9505;50.882;5.350;2023-05-10T02:46:41;13.30;99.90
18753;DHT22;9505;50.882;5.350;2023-05-10T02:49:07;13.30;99.90
18753;DHT22;9505;50.882;5.350;2023-05-10T02:51:36;13.20;99.90
18753;DHT22;9505;50.882;5.350;2023-05-10T02:54:09;13.20;99.90
18753;DHT22;9505;50.882;5.350;2023-05-10T02:56:37;13.30;99.90
18753;DHT22;9505;50.882;5.350;2023-05-10T02:59:06;13.30;99.90
18753;DHT22;9505;50.882;5.350;2023-05-10T03:01:32;13.30;99.90
18753;DHT22;9505;50.882;5.350;2023-05-10T03:03:57;13.30;99.90
18753;DHT22;9505;50.882;5.350;2023-05-10T03:06:23;13.30;99.90
18753;DHT22;9505;50.882;5.350;2023-05-10T03:08:49;13.40;99.90
18753;DHT22;9505;50.882;5.350;2023-05-10T03:17:04;13.50;99.90
18753;DHT22;9505;50.882;5.350;2023-05-10T03:19:42;13.50;99.90
18753;DHT22;9505;50.882;5.350;2023-05-10T03:22:10;13.40;99.90
18753;DHT22;9505;50.882;5.350;2023-05-10T03:24:39;13.50;99.90
18753;DHT22;9505;50.882;5.350;2023-05-10T03:27:07;13.40;99.90
18753;DHT22;9505;50.882;5.350;2023-05-10T03:29:33;13.40;99.90
18753;DHT22;9505;50.882;5.350;2023-05-10T03:31:59;13.40;99.90
18753;DHT22;9505;50.882;5.350;2023-05-10T03:34:26;13.30;99.90
18753;DHT22;9505;50.882;5.350;2023-05-10T03:36:51;13.20;99.90
18753;DHT22;9505;50.882;5.350;2023-05-10T03:39:17;13.30;99.90
18753;DHT22;9505;50.882;5.350;2023-05-10T03:41:43;13.30;99.90
18753;DHT22;9505;50.882;5.350;2023-05-10T03:44:08;13.30;99.90
18753;DHT22;9505;50.882;5.350;2023-05-10T03:46:34;13.40;99.90
18753;DHT22;9505;50.882;5.350;2023-05-10T03:49:00;13.50;99.90
18753;DHT22;9505;50.882;5.350;2023-05-10T03:51:25;13.40;99.90
18753;DHT22;9505;50.882;5.350;2023-05-10T03:53:54;13.40;99.90
18753;DHT22;9505;50.882;5.350;2023-05-10T03:56:20;13.40;99.90
18753;DHT22;9505;50.882;5.350;2023-05-10T03:58:46;13.40;99.90
18753;DHT22;9505;50.882;5.350;2023-05-10T04:01:12;13.40;99.90
18753;DHT22;9505;50.882;5.350;2023-05-10T04:03:37;13.40;99.90
18753;DHT22;9505;50.882;5.350;2023-05-10T04:06:04;13.50;99.90
18753;DHT22;9505;50.882;5.350;2023-05-10T04:08:30;13.50;99.90
18753;DHT22;9505;50.882;5.350;2023-05-10T04:11:08;13.60;99.90
18753;DHT22;9505;50.882;5.350;2023-05-10T04:13:34;13.60;99.90
18753;DHT22;9505;50.882;5.350;2023-05-10T04:16:00;13.60;99.90
18753;DHT22;9505;50.882;5.350;2023-05-10T04:18:26;13.50;99.90
18753;DHT22;9505;50.882;5.350;2023-05-10T04:20:51;13.40;99.90
18753;DHT22;9505;50.882;5.350;2023-05-10T04:23:17;13.30;99.90
18753;DHT22;9505;50.882;5.350;2023-05-10T04:25:42;13.30;99.90
18753;DHT22;9505;50.882;5.350;2023-05-10T04:28:08;13.30;99.90
18753;DHT22;9505;50.882;5.350;2023-05-10T04:30:34;13.30;99.90
18753;DHT22;9505;50.882;5.350;2023-05-10T04:33:00;13.30;99.90
18753;DHT22;9505;50.882;5.350;2023-05-10T04:35:27;13.10;99.90
18753;DHT22;9505;50.882;5.350;2023-05-10T04:37:53;13.10;99.90
18753;DHT22;9505;50.882;5.350;2023-05-10T04:40:19;13.00;99.90
18753;DHT22;9505;50.882;5.350;2023-05-10T04:42:45;13.00;99.90
18753;DHT22;9505;50.882;5.350;2023-05-10T04:45:11;13.10;99.90
18753;DHT22;9505;50.882;5.350;2023-05-10T04:47:37;13.00;99.90
18753;DHT22;9505;50.882;5.350;2023-05-10T04:50:03;13.10;99.90
18753;DHT22;9505;50.882;5.350;2023-05-10T04:52:29;13.10;99.90
18753;DHT22;9505;50.882;5.350;2023-05-10T04:54:55;13.10;99.90
18753;DHT22;9505;50.882;5.350;2023-05-10T04:57:21;13.10;99.90
18753;DHT22;9505;50.882;5.350;2023-05-10T04:59:47;13.10;99.90
18753;DHT22;9505;50.882;5.350;2023-05-10T05:02:13;13.10;99.90
18753;DHT22;9505;50.882;5.350;2023-05-10T05:04:38;13.10;99.90
18753;DHT22;9505;50.882;5.350;2023-05-10T05:07:04;13.10;99.90
18753;DHT22;9505;50.882;5.350;2023-05-10T05:09:30;13.00;99.90
18753;DHT22;9505;50.882;5.350;2023-05-10T05:11:57;13.00;99.90
18753;DHT22;9505;50.882;5.350;2023-05-10T05:14:23;12.90;99.90
18753;DHT22;9505;50.882;5.350;2023-05-10T05:16:51;13.00;99.90
18753;DHT22;9505;50.882;5.350;2023-05-10T05:19:17;12.90;99.90
18753;DHT22;9505;50.882;5.350;2023-05-10T05:21:42;12.90;99.90
18753;DHT22;9505;50.882;5.350;2023-05-10T05:24:08;12.90;99.90
18753;DHT22;9505;50.882;5.350;2023-05-10T05:26:35;13.00;99.90
18753;DHT22;9505;50.882;5.350;2023-05-10T05:29:02;13.00;99.90
18753;DHT22;9505;50.882;5.350;2023-05-10T05:31:28;12.90;99.90
18753;DHT22;9505;50.882;5.350;2023-05-10T05:33:54;12.90;99.90
18753;DHT22;9505;50.882;5.350;2023-05-10T05:36:19;12.90;99.90
18753;DHT22;9505;50.882;5.350;2023-05-10T05:38:45;12.90;99.90
18753;DHT22;9505;50.882;5.350;2023-05-10T05:41:11;13.00;99.90
18753;DHT22;9505;50.882;5.350;2023-05-10T05:43:36;13.00;99.90
18753;DHT22;9505;50.882;5.350;2023-05-10T05:46:02;12.90;99.90
18753;DHT22;9505;50.882;5.350;2023-05-10T05:48:29;12.90;99.90
18753;DHT22;9505;50.882;5.350;2023-05-10T05:50:56;12.80;99.90
18753;DHT22;9505;50.882;5.350;2023-05-10T05:53:22;12.80;99.90
18753;DHT22;9505;50.882;5.350;2023-05-10T05:55:55;12.80;99.90
18753;DHT22;9505;50.882;5.350;2023-05-10T05:58:21;12.90;99.90
18753;DHT22;9505;50.882;5.350;2023-05-10T06:00:47;12.90;99.90
18753;DHT22;9505;50.882;5.350;2023-05-10T06:03:13;13.00;99.90
18753;DHT22;9505;50.882;5.350;2023-05-10T06:05:38;13.00;99.90
18753;DHT22;9505;50.882;5.350;2023-05-10T06:08:04;13.00;99.90
18753;DHT22;9505;50.882;5.350;2023-05-10T06:10:30;13.00;99.90
18753;DHT22;9505;50.882;5.350;2023-05-10T06:12:56;13.00;99.90
18753;DHT22;9505;50.882;5.350;2023-05-10T06:15:22;13.10;99.90
18753;DHT22;9505;50.882;5.350;2023-05-10T06:17:47;13.00;99.90
18753;DHT22;9505;50.882;5.350;2023-05-10T06:20:15;13.00;99.90
18753;DHT22;9505;50.882;5.350;2023-05-10T06:22:41;13.00;99.90
18753;DHT22;9505;50.882;5.350;2023-05-10T06:25:07;13.10;99.90
18753;DHT22;9505;50.882;5.350;2023-05-10T06:27:33;13.20;99.90
18753;DHT22;9505;50.882;5.350;2023-05-10T06:29:59;13.20;99.90
18753;DHT22;9505;50.882;5.350;2023-05-10T06:32:25;13.20;99.90
18753;DHT22;9505;50.882;5.350;2023-05-10T06:34:50;13.10;99.90
18753;DHT22;9505;50.882;5.350;2023-05-10T06:37:16;13.20;99.90
18753;DHT22;9505;50.882;5.350;2023-05-10T06:39:42;13.30;99.90
18753;DHT22;9505;50.882;5.350;2023-05-10T06:42:07;13.40;99.90
18753;DHT22;9505;50.882;5.350;2023-05-10T06:44:33;13.40;99.90
18753;DHT22;9505;50.882;5.350;2023-05-10T06:46:59;13.40;99.90
18753;DHT22;9505;50.882;5.350;2023-05-10T06:49:24;13.40;99.90
18753;DHT22;9505;50.882;5.350;2023-05-10T06:51:50;13.30;99.90
18753;DHT22;9505;50.882;5.350;2023-05-10T06:54:16;13.30;99.90
18753;DHT22;9505;50.882;5.350;2023-05-10T06:56:42;13.40;99.90
18753;DHT22;9505;50.882;5.350;2023-05-10T06:59:07;13.50;99.90
18753;DHT22;9505;50.882;5.350;2023-05-10T07:01:33;13.50;99.90
18753;DHT22;9505;50.882;5.350;2023-05-10T07:03:58;13.50;99.90
18753;DHT22;9505;50.882;5.350;2023-05-10T07:06:24;13.40;99.90
18753;DHT22;9505;50.882;5.350;2023-05-10T07:08:50;13.30;99.90
18753;DHT22;9505;50.882;5.350;2023-05-10T07:11:15;13.40;99.90
18753;DHT22;9505;50.882;5.350;2023-05-10T07:13:41;13.40;99.90
18753;DHT22;9505;50.882;5.350;2023-05-10T07:16:09;13.40;99.90
18753;DHT22;9505;50.882;5.350;2023-05-10T07:18:35;13.50;99.90
18753;DHT22;9505;50.882;5.350;2023-05-10T07:21:01;13.70;99.90
18753;DHT22;9505;50.882;5.350;2023-05-10T07:23:27;13.70;99.90
18753;DHT22;9505;50.882;5.350;2023-05-10T07:25:53;13.60;99.90
18753;DHT22;9505;50.882;5.350;2023-05-10T07:28:19;13.60;99.90
18753;DHT22;9505;50.882;5.350;2023-05-10T07:30:45;13.60;99.90
18753;DHT22;9505;50.882;5.350;2023-05-10T07:33:12;13.60;99.90
18753;DHT22;9505;50.882;5.350;2023-05-10T07:35:38;13.60;99.90
18753;DHT22;9505;50.882;5.350;2023-05-10T07:38:04;13.60;99.90
18753;DHT22;9505;50.882;5.350;2023-05-10T07:40:30;13.50;99.90
18753;DHT22;9505;50.882;5.350;2023-05-10T07:42:56;13.40;99.90
18753;DHT22;9505;50.882;5.350;2023-05-10T07:45:22;13.30;99.90
18753;DHT22;9505;50.882;5.350;2023-05-10T07:47:48;13.20;99.90
18753;DHT22;9505;50.882;5.350;2023-05-10T07:50:14;13.10;99.90
18753;DHT22;9505;50.882;5.350;2023-05-10T07:52:39;13.00;99.90
18753;DHT22;9505;50.882;5.350;2023-05-10T07:55:06;13.00;99.90
18753;DHT22;9505;50.882;5.350;2023-05-10T07:57:33;13.00;99.90
18753;DHT22;9505;50.882;5.350;2023-05-10T07:59:59;12.90;99.90
18753;DHT22;9505;50.882;5.350;2023-05-10T08:02:24;12.80;99.90
18753;DHT22;9505;50.882;5.350;2023-05-10T08:04:50;12.70;99.90
18753;DHT22;9505;50.882;5.350;2023-05-10T08:07:16;12.60;99.90
18753;DHT22;9505;50.882;5.350;2023-05-10T08:09:42;12.60;99.90
18753;DHT22;9505;50.882;5.350;2023-05-10T08:12:08;12.70;99.90
18753;DHT22;9505;50.882;5.350;2023-05-10T08:14:34;12.60;99.90
18753;DHT22;9505;50.882;5.350;2023-05-10T08:17:00;12.70;99.90
18753;DHT22;9505;50.882;5.350;2023-05-10T08:19:25;12.90;99.90
18753;DHT22;9505;50.882;5.350;2023-05-10T08:21:52;12.70;99.90
18753;DHT22;9505;50.882;5.350;2023-05-10T08:24:18;12.60;99.90
18753;DHT22;9505;50.882;5.350;2023-05-10T08:26:44;12.70;99.90
18753;DHT22;9505;50.882;5.350;2023-05-10T08:29:10;12.70;99.90
18753;DHT22;9505;50.882;5.350;2023-05-10T08:31:35;12.70;99.90
18753;DHT22;9505;50.882;5.350;2023-05-10T08:34:01;12.50;99.90
18753;DHT22;9505;50.882;5.350;2023-05-10T08:36:27;12.50;99.90
18753;DHT22;9505;50.882;5.350;2023-05-10T08:38:53;12.50;99.90
18753;DHT22;9505;50.882;5.350;2023-05-10T08:41:23;12.50;99.90
18753;DHT22;9505;50.882;5.350;2023-05-10T08:43:51;12.60;99.90
18753;DHT22;9505;50.882;5.350;2023-05-10T08:46:18;12.60;99.90
18753;DHT22;9505;50.882;5.350;2023-05-10T08:48:49;12.60;99.90
18753;DHT22;9505;50.882;5.350;2023-05-10T08:51:18;12.40;99.90
18753;DHT22;9505;50.882;5.350;2023-05-10T08:53:45;12.60;99.90
18753;DHT22;9505;50.882;5.350;2023-05-10T08:56:11;12.60;99.90
18753;DHT22;9505;50.882;5.350;2023-05-10T08:58:38;12.70;99.90
18753;DHT22;9505;50.882;5.350;2023-05-10T09:01:05;12.70;99.90
18753;DHT22;9505;50.882;5.350;2023-05-10T09:03:31;12.70;99.90
18753;DHT22;9505;50.882;5.350;2023-05-10T09:05:58;12.80;99.90
18753;DHT22;9505;50.882;5.350;2023-05-10T09:08:24;12.90;99.90
18753;DHT22;9505;50.882;5.350;2023-05-10T09:10:54;13.10;99.90
18753;DHT22;9505;50.882;5.350;2023-05-10T09:13:21;13.20;99.90
18753;DHT22;9505;50.882;5.350;2023-05-10T09:15:48;13.20;99.90
18753;DHT22;9505;50.882;5.350;2023-05-10T09:18:14;13.30;99.90
18753;DHT22;9505;50.882;5.350;2023-05-10T09:20:40;13.20;99.90
18753;DHT22;9505;50.882;5.350;2023-05-10T09:23:06;13.10;99.90
18753;DHT22;9505;50.882;5.350;2023-05-10T09:25:32;13.20;99.90
18753;DHT22;9505;50.882;5.350;2023-05-10T09:28:06;13.30;99.90
18753;DHT22;9505;50.882;5.350;2023-05-10T09:30:31;13.30;99.90
18753;DHT22;9505;50.882;5.350;2023-05-10T09:32:58;13.40;99.90
18753;DHT22;9505;50.882;5.350;2023-05-10T09:35:27;13.70;99.90
18753;DHT22;9505;50.882;5.350;2023-05-10T09:37:55;13.80;99.90
18753;DHT22;9505;50.882;5.350;2023-05-10T09:40:23;13.80;99.90
18753;DHT22;9505;50.882;5.350;2023-05-10T09:42:58;13.90;99.90
18753;DHT22;9505;50.882;5.350;2023-05-10T09:45:26;13.90;99.90
18753;DHT22;9505;50.882;5.350;2023-05-10T09:47:52;13.70;99.90
18753;DHT22;9505;50.882;5.350;2023-05-10T09:50:19;13.80;99.90
18753;DHT22;9505;50.882;5.350;2023-05-10T09:52:52;14.10;99.90
18753;DHT22;9505;50.882;5.350;2023-05-10T09:55:23;14.50;99.90
18753;DHT22;9505;50.882;5.350;2023-05-10T09:57:58;14.50;99.90
18753;DHT22;9505;50.882;5.350;2023-05-10T10:00:24;14.10;99.90
18753;DHT22;9505;50.882;5.350;2023-05-10T10:02:58;14.10;99.90
18753;DHT22;9505;50.882;5.350;2023-05-10T10:05:34;14.00;99.90
18753;DHT22;9505;50.882;5.350;2023-05-10T10:08:01;14.10;99.90
18753;DHT22;9505;50.882;5.350;2023-05-10T10:10:28;14.10;99.90
18753;DHT22;9505;50.882;5.350;2023-05-10T10:12:54;14.00;99.90
18753;DHT22;9505;50.882;5.350;2023-05-10T10:15:21;14.20;99.90
18753;DHT22;9505;50.882;5.350;2023-05-10T10:17:49;13.90;99.90
18753;DHT22;9505;50.882;5.350;2023-05-10T10:20:15;13.90;99.90
18753;DHT22;9505;50.882;5.350;2023-05-10T10:22:42;14.00;99.90
18753;DHT22;9505;50.882;5.350;2023-05-10T10:25:10;14.00;99.90
18753;DHT22;9505;50.882;5.350;2023-05-10T10:30:13;13.90;99.90
18753;DHT22;9505;50.882;5.350;2023-05-10T10:33:01;14.00;99.90
18753;DHT22;9505;50.882;5.350;2023-05-10T10:35:33;13.90;99.90
18753;DHT22;9505;50.882;5.350;2023-05-10T10:38:00;14.20;99.90
18753;DHT22;9505;50.882;5.350;2023-05-10T10:40:30;14.40;99.90
18753;DHT22;9505;50.882;5.350;2023-05-10T10:42:57;14.50;99.90
18753;DHT22;9505;50.882;5.350;2023-05-10T10:45:24;14.40;99.90
18753;DHT22;9505;50.882;5.350;2023-05-10T10:48:20;14.40;99.90
18753;DHT22;9505;50.882;5.350;2023-05-10T10:50:46;14.40;99.90
18753;DHT22;9505;50.882;5.350;2023-05-10T10:53:12;14.20;99.90
18753;DHT22;9505;50.882;5.350;2023-05-10T10:55:48;14.30;99.90
18753;DHT22;9505;50.882;5.350;2023-05-10T10:58:33;14.60;99.90
18753;DHT22;9505;50.882;5.350;2023-05-10T11:01:15;14.70;99.90
18753;DHT22;9505;50.882;5.350;2023-05-10T11:03:54;14.50;99.90
18753;DHT22;9505;50.882;5.350;2023-05-10T11:06:40;14.40;99.90
18753;DHT22;9505;50.882;5.350;2023-05-10T11:09:09;14.40;99.90
18753;DHT22;9505;50.882;5.350;2023-05-10T11:11:50;14.50;99.90
18753;DHT22;9505;50.882;5.350;2023-05-10T11:14:20;14.80;99.90
18753;DHT22;9505;50.882;5.350;2023-05-10T11:16:47;14.70;99.90
18753;DHT22;9505;50.882;5.350;2023-05-10T11:19:15;14.90;99.90
18753;DHT22;9505;50.882;5.350;2023-05-10T11:24:17;14.80;99.90
18753;DHT22;9505;50.882;5.350;2023-05-10T11:26:43;14.80;99.90
18753;DHT22;9505;50.882;5.350;2023-05-10T11:29:09;15.00;99.90
18753;DHT22;9505;50.882;5.350;2023-05-10T11:31:35;15.10;99.90
18753;DHT22;9505;50.882;5.350;2023-05-10T11:34:06;15.20;99.90
18753;DHT22;9505;50.882;5.350;2023-05-10T11:36:33;15.40;99.90
18753;DHT22;9505;50.882;5.350;2023-05-10T11:38:59;15.30;99.90
18753;DHT22;9505;50.882;5.350;2023-05-10T11:41:27;15.10;99.90
18753;DHT22;9505;50.882;5.350;2023-05-10T11:43:54;15.20;99.90
18753;DHT22;9505;50.882;5.350;2023-05-10T11:46:22;15.30;99.90
18753;DHT22;9505;50.882;5.350;2023-05-10T11:48:53;15.30;99.90
18753;DHT22;9505;50.882;5.350;2023-05-10T11:51:23;15.20;99.90
18753;DHT22;9505;50.882;5.350;2023-05-10T11:53:52;15.60;99.90
18753;DHT22;9505;50.882;5.350;2023-05-10T11:56:18;15.70;99.90
18753;DHT22;9505;50.882;5.350;2023-05-10T11:58:44;15.70;99.90
18753;DHT22;9505;50.882;5.350;2023-05-10T12:01:10;15.70;99.90
18753;DHT22;9505;50.882;5.350;2023-05-10T12:03:36;15.60;99.90
18753;DHT22;9505;50.882;5.350;2023-05-10T12:06:02;15.60;99.90
18753;DHT22;9505;50.882;5.350;2023-05-10T12:08:29;15.60;99.90
18753;DHT22;9505;50.882;5.350;2023-05-10T12:11:09;16.10;99.90
18753;DHT22;9505;50.882;5.350;2023-05-10T12:13:40;16.10;99.90
18753;DHT22;9505;50.882;5.350;2023-05-10T12:16:23;16.30;99.90
18753;DHT22;9505;50.882;5.350;2023-05-10T12:18:50;16.60;99.90
18753;DHT22;9505;50.882;5.350;2023-05-10T12:21:17;16.80;99.90
18753;DHT22;9505;50.882;5.350;2023-05-10T12:23:45;16.90;99.90
18753;DHT22;9505;50.882;5.350;2023-05-10T12:26:11;16.50;99.90
18753;DHT22;9505;50.882;5.350;2023-05-10T12:28:38;16.30;99.90
18753;DHT22;9505;50.882;5.350;2023-05-10T12:31:05;16.30;99.90
18753;DHT22;9505;50.882;5.350;2023-05-10T12:33:39;16.20;99.90
18753;DHT22;9505;50.882;5.350;2023-05-10T12:36:07;16.30;99.90
18753;DHT22;9505;50.882;5.350;2023-05-10T12:38:33;16.50;99.90
18753;DHT22;9505;50.882;5.350;2023-05-10T12:41:00;16.50;99.90
18753;DHT22;9505;50.882;5.350;2023-05-10T12:43:27;16.60;99.90
18753;DHT22;9505;50.882;5.350;2023-05-10T12:45:53;17.00;99.90
18753;DHT22;9505;50.882;5.350;2023-05-10T12:48:19;16.70;99.90
18753;DHT22;9505;50.882;5.350;2023-05-10T12:50:45;16.80;99.90
18753;DHT22;9505;50.882;5.350;2023-05-10T12:53:13;17.00;99.90
18753;DHT22;9505;50.882;5.350;2023-05-10T12:55:39;17.10;99.90
18753;DHT22;9505;50.882;5.350;2023-05-10T12:58:05;17.50;99.90
18753;DHT22;9505;50.882;5.350;2023-05-10T13:00:30;17.90;99.90
18753;DHT22;9505;50.882;5.350;2023-05-10T13:02:56;17.80;99.90
18753;DHT22;9505;50.882;5.350;2023-05-10T13:05:22;18.00;99.90
18753;DHT22;9505;50.882;5.350;2023-05-10T13:07:47;18.40;99.90
18753;DHT22;9505;50.882;5.350;2023-05-10T13:10:13;18.50;99.90
18753;DHT22;9505;50.882;5.350;2023-05-10T13:12:39;18.10;99.90
18753;DHT22;9505;50.882;5.350;2023-05-10T13:15:05;18.10;99.90
18753;DHT22;9505;50.882;5.350;2023-05-10T13:17:32;18.20;99.90
18753;DHT22;9505;50.882;5.350;2023-05-10T13:19:57;17.50;99.90
18753;DHT22;9505;50.882;5.350;2023-05-10T13:22:23;17.30;99.90
18753;DHT22;9505;50.882;5.350;2023-05-10T13:24:48;17.40;99.90
18753;DHT22;9505;50.882;5.350;2023-05-10T13:27:14;17.20;99.90
18753;DHT22;9505;50.882;5.350;2023-05-10T13:29:40;17.20;99.90
18753;DHT22;9505;50.882;5.350;2023-05-10T13:32:06;17.10;99.90
18753;DHT22;9505;50.882;5.350;2023-05-10T13:34:31;17.10;99.90
18753;DHT22;9505;50.882;5.350;2023-05-10T13:36:57;17.20;99.90
18753;DHT22;9505;50.882;5.350;2023-05-10T13:39:23;17.10;99.90
18753;DHT22;9505;50.882;5.350;2023-05-10T13:41:48;17.00;99.90
18753;DHT22;9505;50.882;5.350;2023-05-10T13:44:14;17.20;99.90
18753;DHT22;9505;50.882;5.350;2023-05-10T13:46:43;17.30;99.90
18753;DHT22;9505;50.882;5.350;2023-05-10T13:49:09;17.20;99.90
18753;DHT22;9505;50.882;5.350;2023-05-10T13:51:35;17.20;99.90
18753;DHT22;9505;50.882;5.350;2023-05-10T13:54:01;17.30;99.90
18753;DHT22;9505;50.882;5.350;2023-05-10T13:56:27;17.50;99.90
18753;DHT22;9505;50.882;5.350;2023-05-10T13:58:53;17.60;99.90
18753;DHT22;9505;50.882;5.350;2023-05-10T14:01:18;17.50;99.90
18753;DHT22;9505;50.882;5.350;2023-05-10T14:03:44;17.30;99.90
18753;DHT22;9505;50.882;5.350;2023-05-10T14:06:10;17.00;99.90
18753;DHT22;9505;50.882;5.350;2023-05-10T14:08:36;17.10;99.90
18753;DHT22;9505;50.882;5.350;2023-05-10T14:11:02;17.00;99.90
18753;DHT22;9505;50.882;5.350;2023-05-10T14:13:27;16.80;99.90
18753;DHT22;9505;50.882;5.350;2023-05-10T14:15:54;16.60;99.90
18753;DHT22;9505;50.882;5.350;2023-05-10T14:18:20;16.60;99.90
18753;DHT22;9505;50.882;5.350;2023-05-10T14:20:46;16.80;99.90
18753;DHT22;9505;50.882;5.350;2023-05-10T14:23:12;16.80;99.90
18753;DHT22;9505;50.882;5.350;2023-05-10T14:25:40;17.00;99.90
18753;DHT22;9505;50.882;5.350;2023-05-10T14:28:05;17.10;99.90
18753;DHT22;9505;50.882;5.350;2023-05-10T14:30:31;16.90;99.90
18753;DHT22;9505;50.882;5.350;2023-05-10T14:32:58;16.90;99.90
18753;DHT22;9505;50.882;5.350;2023-05-10T14:35:24;17.10;99.90
18753;DHT22;9505;50.882;5.350;2023-05-10T14:37:49;17.30;99.90
18753;DHT22;9505;50.882;5.350;2023-05-10T14:40:15;17.50;99.90
18753;DHT22;9505;50.882;5.350;2023-05-10T14:42:42;17.30;99.90
18753;DHT22;9505;50.882;5.350;2023-05-10T14:45:09;17.30;99.90
18753;DHT22;9505;50.882;5.350;2023-05-10T14:47:35;17.30;99.90
18753;DHT22;9505;50.882;5.350;2023-05-10T14:50:01;17.50;99.90
18753;DHT22;9505;50.882;5.350;2023-05-10T14:52:27;17.70;99.90
18753;DHT22;9505;50.882;5.350;2023-05-10T14:54:53;17.80;99.90
18753;DHT22;9505;50.882;5.350;2023-05-10T14:57:19;17.70;99.90
18753;DHT22;9505;50.882;5.350;2023-05-10T14:59:44;17.70;99.90
18753;DHT22;9505;50.882;5.350;2023-05-10T15:02:10;18.30;99.90
18753;DHT22;9505;50.882;5.350;2023-05-10T15:04:36;18.80;99.90
18753;DHT22;9505;50.882;5.350;2023-05-10T15:07:02;19.30;99.90
18753;DHT22;9505;50.882;5.350;2023-05-10T15:09:28;18.80;99.90
18753;DHT22;9505;50.882;5.350;2023-05-10T15:11:54;18.40;99.90
18753;DHT22;9505;50.882;5.350;2023-05-10T15:14:20;18.20;99.90
18753;DHT22;9505;50.882;5.350;2023-05-10T15:16:46;17.70;99.90
18753;DHT22;9505;50.882;5.350;2023-05-10T15:19:12;17.90;99.90
18753;DHT22;9505;50.882;5.350;2023-05-10T15:21:37;17.70;99.90
18753;DHT22;9505;50.882;5.350;2023-05-10T15:24:07;17.90;99.90
18753;DHT22;9505;50.882;5.350;2023-05-10T15:26:33;18.30;99.90
18753;DHT22;9505;50.882;5.350;2023-05-10T15:28:59;18.40;99.90
18753;DHT22;9505;50.882;5.350;2023-05-10T15:31:25;18.50;99.90
18753;DHT22;9505;50.882;5.350;2023-05-10T15:33:50;18.60;99.90
18753;DHT22;9505;50.882;5.350;2023-05-10T15:36:16;18.70;99.90
18753;DHT22;9505;50.882;5.350;2023-05-10T15:38:43;19.10;99.90
18753;DHT22;9505;50.882;5.350;2023-05-10T15:41:09;19.00;99.90
18753;DHT22;9505;50.882;5.350;2023-05-10T15:43:35;19.50;99.90
18753;DHT22;9505;50.882;5.350;2023-05-10T15:46:01;19.00;99.90
18753;DHT22;9505;50.882;5.350;2023-05-10T15:48:26;19.00;99.90
18753;DHT22;9505;50.882;5.350;2023-05-10T15:50:52;18.80;99.90
18753;DHT22;9505;50.882;5.350;2023-05-10T15:53:18;18.50;99.90
18753;DHT22;9505;50.882;5.350;2023-05-10T15:55:44;18.30;99.90
18753;DHT22;9505;50.882;5.350;2023-05-10T15:58:09;18.50;99.90
18753;DHT22;9505;50.882;5.350;2023-05-10T16:00:35;18.60;99.90
18753;DHT22;9505;50.882;5.350;2023-05-10T16:03:01;18.50;99.90
18753;DHT22;9505;50.882;5.350;2023-05-10T16:05:27;18.00;99.90
18753;DHT22;9505;50.882;5.350;2023-05-10T16:07:56;17.80;99.90